sensor_id;sensor_type;location;lat;lon;timestamp;temperature;humidity
18101;DHT22;9177;49.156;8.142;2023-03-01T00:01:09;20.00;74.80
18101;DHT22;9177;49.156;8.142;2023-03-01T00:03:36;20.10;74.90
18101;DHT22;9177;49.156;8.142;2023-03-01T00:06:05;20.10;74.90
18101;DHT22;9177;49.156;8.142;2023-03-01T00:08:33;20.00;74.90
18101;DHT22;9177;49.156;8.142;2023-03-01T00:11:01;20.00;74.80
18101;DHT22;9177;49.156;8.142;2023-03-01T00:13:28;20.00;74.90
18101;DHT22;9177;49.156;8.142;2023-03-01T00:15:55;20.00;74.90
18101;DHT22;9177;49.156;8.142;2023-03-01T00:18:22;20.00;74.70
18101;DHT22;9177;49.156;8.142;2023-03-01T00:20:52;20.00;74.70
18101;DHT22;9177;49.156;8.142;2023-03-01T00:23:22;20.00;74.70
18101;DHT22;9177;49.156;8.142;2023-03-01T00:25:49;20.00;74.70
18101;DHT22;9177;49.156;8.142;2023-03-01T00:28:17;20.10;74.70
18101;DHT22;9177;49.156;8.142;2023-03-01T00:30:44;20.00;74.50
18101;DHT22;9177;49.156;8.142;2023-03-01T00:33:11;20.00;74.70
18101;DHT22;9177;49.156;8.142;2023-03-01T00:35:38;20.00;74.10
18101;DHT22;9177;49.156;8.142;2023-03-01T00:38:05;20.00;74.20
18101;DHT22;9177;49.156;8.142;2023-03-01T00:40:35;20.00;74.10
18101;DHT22;9177;49.156;8.142;2023-03-01T00:43:03;20.00;74.20
18101;DHT22;9177;49.156;8.142;2023-03-01T00:45:30;20.00;74.00
18101;DHT22;9177;49.156;8.142;2023-03-01T00:47:57;20.00;73.50
18101;DHT22;9177;49.156;8.142;2023-03-01T00:50:24;20.00;73.60
18101;DHT22;9177;49.156;8.142;2023-03-01T00:52:52;20.00;73.40
18101;DHT22;9177;49.156;8.142;2023-03-01T00:55:19;20.00;73.70
18101;DHT22;9177;49.156;8.142;2023-03-01T00:57:48;19.90;73.40
18101;DHT22;9177;49.156;8.142;2023-03-01T01:00:15;20.00;74.00
18101;DHT22;9177;49.156;8.142;2023-03-01T01:02:42;20.00;73.70
18101;DHT22;9177;49.156;8.142;2023-03-01T01:05:09;20.00;73.50
18101;DHT22;9177;49.156;8.142;2023-03-01T01:07:37;20.00;73.40
18101;DHT22;9177;49.156;8.142;2023-03-01T01:10:04;20.00;73.50
18101;DHT22;9177;49.156;8.142;2023-03-01T01:12:32;20.00;73.20
18101;DHT22;9177;49.156;8.142;2023-03-01T01:15:00;20.00;73.50
18101;DHT22;9177;49.156;8.142;2023-03-01T01:17:27;19.90;73.50
18101;DHT22;9177;49.156;8.142;2023-03-01T01:19:56;19.90;73.30
18101;DHT22;9177;49.156;8.142;2023-03-01T01:22:23;20.00;72.90
18101;DHT22;9177;49.156;8.142;2023-03-01T01:24:49;20.00;73.10
18101;DHT22;9177;49.156;8.142;2023-03-01T01:27:16;19.90;73.00
18101;DHT22;9177;49.156;8.142;2023-03-01T01:29:43;20.00;73.20
18101;DHT22;9177;49.156;8.142;2023-03-01T01:32:11;19.90;73.00
18101;DHT22;9177;49.156;8.142;2023-03-01T01:34:38;19.90;72.80
18101;DHT22;9177;49.156;8.142;2023-03-01T01:37:05;19.90;73.00
18101;DHT22;9177;49.156;8.142;2023-03-01T01:39:33;19.90;73.60
18101;DHT22;9177;49.156;8.142;2023-03-01T01:42:00;20.00;73.00
18101;DHT22;9177;49.156;8.142;2023-03-01T01:44:29;19.90;72.80
18101;DHT22;9177;49.156;8.142;2023-03-01T01:46:58;19.90;73.00
18101;DHT22;9177;49.156;8.142;2023-03-01T01:49:31;19.90;73.00
18101;DHT22;9177;49.156;8.142;2023-03-01T01:52:09;20.00;72.60
18101;DHT22;9177;49.156;8.142;2023-03-01T01:54:44;19.90;72.70
18101;DHT22;9177;49.156;8.142;2023-03-01T01:57:15;19.90;73.40
18101;DHT22;9177;49.156;8.142;2023-03-01T01:59:45;19.90;72.50
18101;DHT22;9177;49.156;8.142;2023-03-01T02:02:15;19.90;72.70
18101;DHT22;9177;49.156;8.142;2023-03-01T02:04:43;19.90;72.70
18101;DHT22;9177;49.156;8.142;2023-03-01T02:07:14;19.90;72.90
18101;DHT22;9177;49.156;8.142;2023-03-01T02:09:46;19.90;72.30
18101;DHT22;9177;49.156;8.142;2023-03-01T02:12:14;19.90;72.50
18101;DHT22;9177;49.156;8.142;2023-03-01T02:14:42;19.90;72.40
18101;DHT22;9177;49.156;8.142;2023-03-01T02:17:09;19.90;72.40
18101;DHT22;9177;49.156;8.142;2023-03-01T02:19:47;19.90;72.20
18101;DHT22;9177;49.156;8.142;2023-03-01T02:22:22;19.90;72.40
18101;DHT22;9177;49.156;8.142;2023-03-01T02:25:00;19.90;72.60
18101;DHT22;9177;49.156;8.142;2023-03-01T02:27:33;19.90;72.50
18101;DHT22;9177;49.156;8.142;2023-03-01T02:30:05;19.90;72.40
18101;DHT22;9177;49.156;8.142;2023-03-01T02:32:34;19.90;72.60
18101;DHT22;9177;49.156;8.142;2023-03-01T02:35:01;19.90;72.70
18101;DHT22;9177;49.156;8.142;2023-03-01T02:37:27;19.90;72.20
18101;DHT22;9177;49.156;8.142;2023-03-01T02:39:58;19.90;72.40
18101;DHT22;9177;49.156;8.142;2023-03-01T02:42:28;19.90;72.50
18101;DHT22;9177;49.156;8.142;2023-03-01T02:44:57;19.90;72.50
18101;DHT22;9177;49.156;8.142;2023-03-01T02:47:25;19.90;72.20
18101;DHT22;9177;49.156;8.142;2023-03-01T02:49:51;19.90;72.20
18101;DHT22;9177;49.156;8.142;2023-03-01T02:52:34;19.90;72.00
18101;DHT22;9177;49.156;8.142;2023-03-01T02:55:06;19.90;72.20
18101;DHT22;9177;49.156;8.142;2023-03-01T02:57:37;19.90;72.20
18101;DHT22;9177;49.156;8.142;2023-03-01T03:00:08;19.90;72.10
18101;DHT22;9177;49.156;8.142;2023-03-01T03:02:37;19.90;72.30
18101;DHT22;9177;49.156;8.142;2023-03-01T03:05:07;19.90;72.00
18101;DHT22;9177;49.156;8.142;2023-03-01T03:07:36;19.90;72.00
18101;DHT22;9177;49.156;8.142;2023-03-01T03:10:04;19.90;72.00
18101;DHT22;9177;49.156;8.142;2023-03-01T03:12:32;19.90;72.10
18101;DHT22;9177;49.156;8.142;2023-03-01T03:15:01;19.90;72.00
18101;DHT22;9177;49.156;8.142;2023-03-01T03:17:34;19.90;72.00
18101;DHT22;9177;49.156;8.142;2023-03-01T03:20:02;19.90;72.00
18101;DHT22;9177;49.156;8.142;2023-03-01T03:22:30;19.90;72.10
18101;DHT22;9177;49.156;8.142;2023-03-01T03:24:59;19.90;71.90
18101;DHT22;9177;49.156;8.142;2023-03-01T03:27:27;19.90;71.90
18101;DHT22;9177;49.156;8.142;2023-03-01T03:29:54;19.90;71.90
18101;DHT22;9177;49.156;8.142;2023-03-01T03:32:21;19.90;72.00
18101;DHT22;9177;49.156;8.142;2023-03-01T03:34:48;19.90;72.00
18101;DHT22;9177;49.156;8.142;2023-03-01T03:37:16;19.90;72.00
18101;DHT22;9177;49.156;8.142;2023-03-01T03:39:57;19.90;71.90
18101;DHT22;9177;49.156;8.142;2023-03-01T03:42:25;19.90;71.80
18101;DHT22;9177;49.156;8.142;2023-03-01T03:44:52;19.90;71.90
18101;DHT22;9177;49.156;8.142;2023-03-01T03:47:18;19.90;72.00
18101;DHT22;9177;49.156;8.142;2023-03-01T03:49:45;19.90;72.10
18101;DHT22;9177;49.156;8.142;2023-03-01T03:52:12;19.90;71.90
18101;DHT22;9177;49.156;8.142;2023-03-01T03:54:41;19.90;71.80
18101;DHT22;9177;49.156;8.142;2023-03-01T03:57:07;19.90;72.00
18101;DHT22;9177;49.156;8.142;2023-03-01T03:59:34;19.90;72.00
18101;DHT22;9177;49.156;8.142;2023-03-01T04:02:01;19.90;72.00
18101;DHT22;9177;49.156;8.142;2023-03-01T04:04:28;19.90;71.80
18101;DHT22;9177;49.156;8.142;2023-03-01T04:06:55;19.90;71.90
18101;DHT22;9177;49.156;8.142;2023-03-01T04:09:21;19.90;71.80
18101;DHT22;9177;49.156;8.142;2023-03-01T04:11:50;19.90;71.80
18101;DHT22;9177;49.156;8.142;2023-03-01T04:14:16;19.90;71.90
18101;DHT22;9177;49.156;8.142;2023-03-01T04:16:43;19.90;71.90
18101;DHT22;9177;49.156;8.142;2023-03-01T04:19:10;19.90;71.90
18101;DHT22;9177;49.156;8.142;2023-03-01T04:21:37;19.90;71.80
18101;DHT22;9177;49.156;8.142;2023-03-01T04:24:04;19.90;71.90
18101;DHT22;9177;49.156;8.142;2023-03-01T04:26:32;19.90;71.80
18101;DHT22;9177;49.156;8.142;2023-03-01T04:29:00;19.90;71.70
18101;DHT22;9177;49.156;8.142;2023-03-01T04:31:27;19.90;72.00
18101;DHT22;9177;49.156;8.142;2023-03-01T04:33:55;19.90;72.00
18101;DHT22;9177;49.156;8.142;2023-03-01T04:36:25;19.90;71.80
18101;DHT22;9177;49.156;8.142;2023-03-01T04:38:52;19.90;71.80
18101;DHT22;9177;49.156;8.142;2023-03-01T04:41:20;19.90;71.80
18101;DHT22;9177;49.156;8.142;2023-03-01T04:43:47;19.90;71.80
18101;DHT22;9177;49.156;8.142;2023-03-01T04:46:18;19.90;71.70
18101;DHT22;9177;49.156;8.142;2023-03-01T04:48:45;19.80;71.70
18101;DHT22;9177;49.156;8.142;2023-03-01T04:51:12;19.90;71.80
18101;DHT22;9177;49.156;8.142;2023-03-01T04:53:40;19.90;71.70
18101;DHT22;9177;49.156;8.142;2023-03-01T04:56:07;19.80;71.70
18101;DHT22;9177;49.156;8.142;2023-03-01T04:58:34;19.80;71.60
18101;DHT22;9177;49.156;8.142;2023-03-01T05:01:01;19.90;71.70
18101;DHT22;9177;49.156;8.142;2023-03-01T05:03:42;19.80;71.70
18101;DHT22;9177;49.156;8.142;2023-03-01T05:06:09;19.90;71.80
18101;DHT22;9177;49.156;8.142;2023-03-01T05:08:37;19.90;71.80
18101;DHT22;9177;49.156;8.142;2023-03-01T05:11:04;19.80;71.70
18101;DHT22;9177;49.156;8.142;2023-03-01T05:13:35;19.80;71.70
18101;DHT22;9177;49.156;8.142;2023-03-01T05:16:03;19.80;71.70
18101;DHT22;9177;49.156;8.142;2023-03-01T05:18:31;19.80;71.60
18101;DHT22;9177;49.156;8.142;2023-03-01T05:21:04;19.80;71.70
18101;DHT22;9177;49.156;8.142;2023-03-01T05:23:32;19.80;71.70
18101;DHT22;9177;49.156;8.142;2023-03-01T05:25:59;19.80;71.90
18101;DHT22;9177;49.156;8.142;2023-03-01T05:28:27;19.80;71.80
18101;DHT22;9177;49.156;8.142;2023-03-01T05:30:55;19.80;71.90
18101;DHT22;9177;49.156;8.142;2023-03-01T05:33:22;19.80;71.60
18101;DHT22;9177;49.156;8.142;2023-03-01T05:35:50;19.80;71.80
18101;DHT22;9177;49.156;8.142;2023-03-01T05:38:20;19.90;71.60
18101;DHT22;9177;49.156;8.142;2023-03-01T05:40:48;19.90;71.60
18101;DHT22;9177;49.156;8.142;2023-03-01T05:43:16;19.90;71.60
18101;DHT22;9177;49.156;8.142;2023-03-01T05:45:44;19.80;71.60
18101;DHT22;9177;49.156;8.142;2023-03-01T05:48:12;19.90;72.30
18101;DHT22;9177;49.156;8.142;2023-03-01T05:50:40;19.90;71.50
18101;DHT22;9177;49.156;8.142;2023-03-01T05:53:10;19.80;71.60
18101;DHT22;9177;49.156;8.142;2023-03-01T05:55:38;19.80;71.50
18101;DHT22;9177;49.156;8.142;2023-03-01T05:58:07;19.80;71.50
18101;DHT22;9177;49.156;8.142;2023-03-01T06:00:36;19.80;71.50
18101;DHT22;9177;49.156;8.142;2023-03-01T06:03:03;19.80;71.70
18101;DHT22;9177;49.156;8.142;2023-03-01T06:05:30;19.80;71.50
18101;DHT22;9177;49.156;8.142;2023-03-01T06:07:59;19.80;71.50
18101;DHT22;9177;49.156;8.142;2023-03-01T06:10:26;19.80;71.60
18101;DHT22;9177;49.156;8.142;2023-03-01T06:12:54;19.80;71.50
18101;DHT22;9177;49.156;8.142;2023-03-01T06:15:22;19.80;71.40
18101;DHT22;9177;49.156;8.142;2023-03-01T06:17:50;19.80;71.50
18101;DHT22;9177;49.156;8.142;2023-03-01T06:20:18;19.80;71.70
18101;DHT22;9177;49.156;8.142;2023-03-01T06:22:46;19.80;71.50
18101;DHT22;9177;49.156;8.142;2023-03-01T06:25:15;19.80;71.50
18101;DHT22;9177;49.156;8.142;2023-03-01T06:27:42;19.80;71.50
18101;DHT22;9177;49.156;8.142;2023-03-01T06:30:14;19.80;71.40
18101;DHT22;9177;49.156;8.142;2023-03-01T06:32:41;19.80;71.70
18101;DHT22;9177;49.156;8.142;2023-03-01T06:35:08;19.80;71.30
18101;DHT22;9177;49.156;8.142;2023-03-01T06:37:36;19.80;71.30
18101;DHT22;9177;49.156;8.142;2023-03-01T06:40:03;19.80;71.50
18101;DHT22;9177;49.156;8.142;2023-03-01T06:42:33;19.80;71.30
18101;DHT22;9177;49.156;8.142;2023-03-01T06:45:00;19.80;71.20
18101;DHT22;9177;49.156;8.142;2023-03-01T06:47:28;19.90;71.40
18101;DHT22;9177;49.156;8.142;2023-03-01T06:49:55;19.80;71.30
18101;DHT22;9177;49.156;8.142;2023-03-01T06:52:25;19.80;71.30
18101;DHT22;9177;49.156;8.142;2023-03-01T06:54:52;19.80;71.20
18101;DHT22;9177;49.156;8.142;2023-03-01T06:57:21;19.80;71.50
18101;DHT22;9177;49.156;8.142;2023-03-01T06:59:48;19.80;71.30
18101;DHT22;9177;49.156;8.142;2023-03-01T07:02:15;19.80;71.40
18101;DHT22;9177;49.156;8.142;2023-03-01T07:04:44;19.80;71.40
18101;DHT22;9177;49.156;8.142;2023-03-01T07:07:11;19.90;72.20
18101;DHT22;9177;49.156;8.142;2023-03-01T07:09:38;19.80;71.40
18101;DHT22;9177;49.156;8.142;2023-03-01T07:12:05;19.90;71.40
18101;DHT22;9177;49.156;8.142;2023-03-01T07:14:33;19.90;71.30
18101;DHT22;9177;49.156;8.142;2023-03-01T07:17:00;19.90;71.30
18101;DHT22;9177;49.156;8.142;2023-03-01T07:19:27;19.90;71.30
18101;DHT22;9177;49.156;8.142;2023-03-01T07:21:55;19.90;71.30
18101;DHT22;9177;49.156;8.142;2023-03-01T07:24:22;19.90;71.20
18101;DHT22;9177;49.156;8.142;2023-03-01T07:26:49;19.90;71.10
18101;DHT22;9177;49.156;8.142;2023-03-01T07:29:17;19.90;71.30
18101;DHT22;9177;49.156;8.142;2023-03-01T07:31:44;19.90;71.20
18101;DHT22;9177;49.156;8.142;2023-03-01T07:34:11;19.90;71.30
18101;DHT22;9177;49.156;8.142;2023-03-01T07:36:38;19.90;71.10
18101;DHT22;9177;49.156;8.142;2023-03-01T07:39:10;19.90;71.20
18101;DHT22;9177;49.156;8.142;2023-03-01T07:41:37;19.90;71.20
18101;DHT22;9177;49.156;8.142;2023-03-01T07:44:04;19.90;71.90
18101;DHT22;9177;49.156;8.142;2023-03-01T07:46:31;20.00;71.10
18101;DHT22;9177;49.156;8.142;2023-03-01T07:48:58;20.00;71.20
18101;DHT22;9177;49.156;8.142;2023-03-01T07:51:25;20.00;71.30
18101;DHT22;9177;49.156;8.142;2023-03-01T07:53:52;20.00;71.30
18101;DHT22;9177;49.156;8.142;2023-03-01T07:56:20;20.00;71.30
18101;DHT22;9177;49.156;8.142;2023-03-01T07:58:47;20.00;71.50
18101;DHT22;9177;49.156;8.142;2023-03-01T08:01:15;20.00;71.50
18101;DHT22;9177;49.156;8.142;2023-03-01T08:03:43;20.00;71.70
18101;DHT22;9177;49.156;8.142;2023-03-01T08:06:11;20.00;71.80
18101;DHT22;9177;49.156;8.142;2023-03-01T08:08:38;20.00;71.90
18101;DHT22;9177;49.156;8.142;2023-03-01T08:11:06;20.00;72.20
18101;DHT22;9177;49.156;8.142;2023-03-01T08:13:35;20.00;72.00
18101;DHT22;9177;49.156;8.142;2023-03-01T08:16:02;20.00;72.10
18101;DHT22;9177;49.156;8.142;2023-03-01T08:18:30;20.00;72.30
18101;DHT22;9177;49.156;8.142;2023-03-01T08:21:02;20.00;72.50
18101;DHT22;9177;49.156;8.142;2023-03-01T08:23:29;20.00;72.50
18101;DHT22;9177;49.156;8.142;2023-03-01T08:26:03;20.00;72.50
18101;DHT22;9177;49.156;8.142;2023-03-01T08:28:31;20.10;72.60
18101;DHT22;9177;49.156;8.142;2023-03-01T08:30:59;20.10;72.60
18101;DHT22;9177;49.156;8.142;2023-03-01T08:33:26;20.10;72.50
18101;DHT22;9177;49.156;8.142;2023-03-01T08:36:01;20.10;72.50
18101;DHT22;9177;49.156;8.142;2023-03-01T08:38:28;20.10;72.50
18101;DHT22;9177;49.156;8.142;2023-03-01T08:40:55;20.20;72.50
18101;DHT22;9177;49.156;8.142;2023-03-01T08:43:25;20.20;72.60
18101;DHT22;9177;49.156;8.142;2023-03-01T08:45:52;20.20;72.50
18101;DHT22;9177;49.156;8.142;2023-03-01T08:48:20;20.20;72.60
18101;DHT22;9177;49.156;8.142;2023-03-01T08:50:47;20.20;72.60
18101;DHT22;9177;49.156;8.142;2023-03-01T08:53:14;20.20;72.50
18101;DHT22;9177;49.156;8.142;2023-03-01T08:55:40;20.20;72.50
18101;DHT22;9177;49.156;8.142;2023-03-01T08:58:07;20.20;72.50
18101;DHT22;9177;49.156;8.142;2023-03-01T09:00:34;20.30;72.50
18101;DHT22;9177;49.156;8.142;2023-03-01T09:03:01;20.30;72.50
18101;DHT22;9177;49.156;8.142;2023-03-01T09:05:31;20.30;72.30
18101;DHT22;9177;49.156;8.142;2023-03-01T09:07:58;20.30;72.50
18101;DHT22;9177;49.156;8.142;2023-03-01T09:10:25;20.30;72.50
18101;DHT22;9177;49.156;8.142;2023-03-01T09:12:52;20.30;72.50
18101;DHT22;9177;49.156;8.142;2023-03-01T09:15:18;20.30;72.50
18101;DHT22;9177;49.156;8.142;2023-03-01T09:17:45;20.30;72.50
18101;DHT22;9177;49.156;8.142;2023-03-01T09:20:12;20.30;72.50
18101;DHT22;9177;49.156;8.142;2023-03-01T09:22:40;20.30;72.50
18101;DHT22;9177;49.156;8.142;2023-03-01T09:25:08;20.30;72.60
18101;DHT22;9177;49.156;8.142;2023-03-01T09:27:35;20.40;72.60
18101;DHT22;9177;49.156;8.142;2023-03-01T09:30:02;20.40;72.60
18101;DHT22;9177;49.156;8.142;2023-03-01T09:32:30;20.40;72.60
18101;DHT22;9177;49.156;8.142;2023-03-01T09:34:57;20.40;72.70
18101;DHT22;9177;49.156;8.142;2023-03-01T09:37:33;20.40;72.60
18101;DHT22;9177;49.156;8.142;2023-03-01T09:40:04;20.40;72.60
18101;DHT22;9177;49.156;8.142;2023-03-01T09:42:34;20.40;72.60
18101;DHT22;9177;49.156;8.142;2023-03-01T09:45:04;20.40;72.70
18101;DHT22;9177;49.156;8.142;2023-03-01T09:47:34;20.40;72.60
18101;DHT22;9177;49.156;8.142;2023-03-01T09:50:05;20.40;72.70
18101;DHT22;9177;49.156;8.142;2023-03-01T09:52:39;20.40;73.50
18101;DHT22;9177;49.156;8.142;2023-03-01T09:55:11;20.40;73.50
18101;DHT22;9177;49.156;8.142;2023-03-01T09:57:45;20.40;72.70
18101;DHT22;9177;49.156;8.142;2023-03-01T10:00:26;20.40;72.70
18101;DHT22;9177;49.156;8.142;2023-03-01T10:02:59;20.40;72.80
18101;DHT22;9177;49.156;8.142;2023-03-01T10:05:37;20.40;72.70
18101;DHT22;9177;49.156;8.142;2023-03-01T10:08:29;20.40;72.80
18101;DHT22;9177;49.156;8.142;2023-03-01T10:11:00;20.40;72.80
18101;DHT22;9177;49.156;8.142;2023-03-01T10:13:32;20.40;72.70
18101;DHT22;9177;49.156;8.142;2023-03-01T10:16:06;20.40;72.70
18101;DHT22;9177;49.156;8.142;2023-03-01T10:18:37;20.50;72.70
18101;DHT22;9177;49.156;8.142;2023-03-01T10:21:14;20.50;72.70
18101;DHT22;9177;49.156;8.142;2023-03-01T10:23:42;20.50;72.70
18101;DHT22;9177;49.156;8.142;2023-03-01T10:26:30;20.50;72.70
18101;DHT22;9177;49.156;8.142;2023-03-01T10:29:03;20.50;72.70
18101;DHT22;9177;49.156;8.142;2023-03-01T10:31:38;20.50;72.60
18101;DHT22;9177;49.156;8.142;2023-03-01T10:34:11;20.50;72.60
18101;DHT22;9177;49.156;8.142;2023-03-01T10:36:39;20.50;72.50
18101;DHT22;9177;49.156;8.142;2023-03-01T10:39:13;20.50;72.50
18101;DHT22;9177;49.156;8.142;2023-03-01T10:41:54;20.60;72.60
18101;DHT22;9177;49.156;8.142;2023-03-01T10:44:39;20.60;72.50
18101;DHT22;9177;49.156;8.142;2023-03-01T10:47:15;20.60;72.50
18101;DHT22;9177;49.156;8.142;2023-03-01T10:49:56;20.60;72.40
18101;DHT22;9177;49.156;8.142;2023-03-01T10:52:35;20.60;72.40
18101;DHT22;9177;49.156;8.142;2023-03-01T10:55:18;20.70;72.50
18101;DHT22;9177;49.156;8.142;2023-03-01T10:57:50;20.70;72.60
18101;DHT22;9177;49.156;8.142;2023-03-01T11:00:32;20.70;72.70
18101;DHT22;9177;49.156;8.142;2023-03-01T11:03:11;20.70;72.70
18101;DHT22;9177;49.156;8.142;2023-03-01T11:05:52;20.70;72.70
18101;DHT22;9177;49.156;8.142;2023-03-01T11:08:36;20.80;72.60
18101;DHT22;9177;49.156;8.142;2023-03-01T11:11:05;20.80;72.80
18101;DHT22;9177;49.156;8.142;2023-03-01T11:13:35;20.80;72.80
18101;DHT22;9177;49.156;8.142;2023-03-01T11:16:06;20.80;72.80
18101;DHT22;9177;49.156;8.142;2023-03-01T11:18:34;20.80;72.80
18101;DHT22;9177;49.156;8.142;2023-03-01T11:21:01;20.90;72.80
18101;DHT22;9177;49.156;8.142;2023-03-01T11:23:30;20.90;72.80
18101;DHT22;9177;49.156;8.142;2023-03-01T11:26:00;20.90;72.90
18101;DHT22;9177;49.156;8.142;2023-03-01T11:28:29;20.90;73.00
18101;DHT22;9177;49.156;8.142;2023-03-01T11:31:02;21.00;72.80
18101;DHT22;9177;49.156;8.142;2023-03-01T11:33:37;21.00;72.80
18101;DHT22;9177;49.156;8.142;2023-03-01T11:36:11;21.00;72.70
18101;DHT22;9177;49.156;8.142;2023-03-01T11:38:40;21.10;72.50
18101;DHT22;9177;49.156;8.142;2023-03-01T11:41:12;21.10;72.30
18101;DHT22;9177;49.156;8.142;2023-03-01T11:43:48;21.10;72.20
18101;DHT22;9177;49.156;8.142;2023-03-01T11:46:38;21.10;71.80
18101;DHT22;9177;49.156;8.142;2023-03-01T11:49:16;21.20;71.70
18101;DHT22;9177;49.156;8.142;2023-03-01T11:51:52;21.20;71.60
18101;DHT22;9177;49.156;8.142;2023-03-01T11:54:30;21.20;71.60
18101;DHT22;9177;49.156;8.142;2023-03-01T11:57:04;21.20;71.80
18101;DHT22;9177;49.156;8.142;2023-03-01T11:59:53;21.20;71.90
18101;DHT22;9177;49.156;8.142;2023-03-01T12:03:07;21.30;71.90
18101;DHT22;9177;49.156;8.142;2023-03-01T12:09:00;21.30;71.50
18101;DHT22;9177;49.156;8.142;2023-03-01T12:11:39;21.40;71.40
18101;DHT22;9177;49.156;8.142;2023-03-01T12:14:21;21.40;71.40
18101;DHT22;9177;49.156;8.142;2023-03-01T12:17:21;21.40;71.20
18101;DHT22;9177;49.156;8.142;2023-03-01T12:20:07;21.40;71.20
18101;DHT22;9177;49.156;8.142;2023-03-01T12:22:46;21.50;71.20
18101;DHT22;9177;49.156;8.142;2023-03-01T12:25:25;21.50;71.10
18101;DHT22;9177;49.156;8.142;2023-03-01T12:30:57;21.60;71.00
18101;DHT22;9177;49.156;8.142;2023-03-01T12:33:35;21.60;71.00
18101;DHT22;9177;49.156;8.142;2023-03-01T12:36:16;21.60;70.90
18101;DHT22;9177;49.156;8.142;2023-03-01T12:38:50;21.60;70.70
18101;DHT22;9177;49.156;8.142;2023-03-01T12:41:38;21.60;70.70
18101;DHT22;9177;49.156;8.142;2023-03-01T12:44:19;21.70;70.70
18101;DHT22;9177;49.156;8.142;2023-03-01T12:46:59;21.70;70.70
18101;DHT22;9177;49.156;8.142;2023-03-01T12:49:33;21.70;70.70
18101;DHT22;9177;49.156;8.142;2023-03-01T12:52:11;21.70;70.60
18101;DHT22;9177;49.156;8.142;2023-03-01T12:54:40;21.80;70.80
18101;DHT22;9177;49.156;8.142;2023-03-01T12:57:14;21.70;70.70
18101;DHT22;9177;49.156;8.142;2023-03-01T12:59:56;21.80;70.80
18101;DHT22;9177;49.156;8.142;2023-03-01T13:02:32;21.80;70.80
18101;DHT22;9177;49.156;8.142;2023-03-01T13:05:20;21.80;70.70
18101;DHT22;9177;49.156;8.142;2023-03-01T13:07:56;21.80;70.50
18101;DHT22;9177;49.156;8.142;2023-03-01T13:10:29;21.80;70.50
18101;DHT22;9177;49.156;8.142;2023-03-01T13:13:12;21.90;70.40
18101;DHT22;9177;49.156;8.142;2023-03-01T13:15:40;21.90;70.20
18101;DHT22;9177;49.156;8.142;2023-03-01T13:18:32;21.90;70.30
18101;DHT22;9177;49.156;8.142;2023-03-01T13:21:01;21.90;70.20
18101;DHT22;9177;49.156;8.142;2023-03-01T13:23:34;21.90;70.20
18101;DHT22;9177;49.156;8.142;2023-03-01T13:26:08;22.00;70.40
18101;DHT22;9177;49.156;8.142;2023-03-01T13:28:48;22.00;70.30
18101;DHT22;9177;49.156;8.142;2023-03-01T13:34:52;22.00;70.20
18101;DHT22;9177;49.156;8.142;2023-03-01T13:37:34;22.00;70.20
18101;DHT22;9177;49.156;8.142;2023-03-01T13:42:49;22.10;70.20
18101;DHT22;9177;49.156;8.142;2023-03-01T13:45:20;22.10;70.20
18101;DHT22;9177;49.156;8.142;2023-03-01T13:47:52;22.10;70.20
18101;DHT22;9177;49.156;8.142;2023-03-01T13:50:23;22.10;70.30
18101;DHT22;9177;49.156;8.142;2023-03-01T13:52:54;22.10;70.40
18101;DHT22;9177;49.156;8.142;2023-03-01T13:55:35;22.10;70.40
18101;DHT22;9177;49.156;8.142;2023-03-01T13:58:13;22.10;70.90
18101;DHT22;9177;49.156;8.142;2023-03-01T14:00:41;22.20;72.30
18101;DHT22;9177;49.156;8.142;2023-03-01T14:03:14;22.20;72.40
18101;DHT22;9177;49.156;8.142;2023-03-01T14:05:43;22.20;72.60
18101;DHT22;9177;49.156;8.142;2023-03-01T14:08:22;22.20;73.40
18101;DHT22;9177;49.156;8.142;2023-03-01T14:11:10;22.30;72.40
18101;DHT22;9177;49.156;8.142;2023-03-01T14:13:54;22.30;71.70
18101;DHT22;9177;49.156;8.142;2023-03-01T14:16:33;22.30;72.30
18101;DHT22;9177;49.156;8.142;2023-03-01T14:19:15;22.30;71.10
18101;DHT22;9177;49.156;8.142;2023-03-01T14:21:43;22.30;71.20
18101;DHT22;9177;49.156;8.142;2023-03-01T14:24:18;22.40;71.20
18101;DHT22;9177;49.156;8.142;2023-03-01T14:26:48;22.40;71.10
18101;DHT22;9177;49.156;8.142;2023-03-01T14:29:26;22.40;71.40
18101;DHT22;9177;49.156;8.142;2023-03-01T14:31:53;22.40;71.40
18101;DHT22;9177;49.156;8.142;2023-03-01T14:34:21;22.40;71.50
18101;DHT22;9177;49.156;8.142;2023-03-01T14:36:48;22.40;71.40
18101;DHT22;9177;49.156;8.142;2023-03-01T14:39:23;22.40;71.20
18101;DHT22;9177;49.156;8.142;2023-03-01T14:41:52;22.40;71.50
18101;DHT22;9177;49.156;8.142;2023-03-01T14:44:22;22.40;71.20
18101;DHT22;9177;49.156;8.142;2023-03-01T14:46:53;22.40;71.70
18101;DHT22;9177;49.156;8.142;2023-03-01T14:49:24;22.40;71.50
18101;DHT22;9177;49.156;8.142;2023-03-01T14:51:54;22.40;71.60
18101;DHT22;9177;49.156;8.142;2023-03-01T14:54:25;22.40;71.50
18101;DHT22;9177;49.156;8.142;2023-03-01T14:56:58;22.40;71.80
18101;DHT22;9177;49.156;8.142;2023-03-01T14:59:25;22.40;71.60
18101;DHT22;9177;49.156;8.142;2023-03-01T15:01:55;22.30;71.10
18101;DHT22;9177;49.156;8.142;2023-03-01T15:04:23;22.30;71.50
18101;DHT22;9177;49.156;8.142;2023-03-01T15:06:52;22.30;71.60
18101;DHT22;9177;49.156;8.142;2023-03-01T15:09:19;22.30;72.40
18101;DHT22;9177;49.156;8.142;2023-03-01T15:11:47;22.30;71.70
18101;DHT22;9177;49.156;8.142;2023-03-01T15:14:38;22.30;73.60
18101;DHT22;9177;49.156;8.142;2023-03-01T15:17:21;22.20;74.10
18101;DHT22;9177;49.156;8.142;2023-03-01T15:19:50;22.30;73.70
18101;DHT22;9177;49.156;8.142;2023-03-01T15:22:17;22.20;73.90
18101;DHT22;9177;49.156;8.142;2023-03-01T15:24:47;22.20;74.80
18101;DHT22;9177;49.156;8.142;2023-03-01T15:27:17;22.20;74.80
18101;DHT22;9177;49.156;8.142;2023-03-01T15:29:51;22.20;75.00
18101;DHT22;9177;49.156;8.142;2023-03-01T15:32:26;22.20;73.50
18101;DHT22;9177;49.156;8.142;2023-03-01T15:34:53;22.20;74.20
18101;DHT22;9177;49.156;8.142;2023-03-01T15:37:49;22.10;74.80
18101;DHT22;9177;49.156;8.142;2023-03-01T15:40:19;22.10;74.20
18101;DHT22;9177;49.156;8.142;2023-03-01T15:42:47;22.10;74.10
18101;DHT22;9177;49.156;8.142;2023-03-01T15:45:23;22.10;74.30
18101;DHT22;9177;49.156;8.142;2023-03-01T15:47:53;22.20;74.80
18101;DHT22;9177;49.156;8.142;2023-03-01T15:50:25;22.20;74.60
18101;DHT22;9177;49.156;8.142;2023-03-01T15:52:53;22.20;75.10
18101;DHT22;9177;49.156;8.142;2023-03-01T15:55:21;22.10;75.30
18101;DHT22;9177;49.156;8.142;2023-03-01T15:57:49;22.10;75.00
18101;DHT22;9177;49.156;8.142;2023-03-01T16:00:17;22.00;75.00
18101;DHT22;9177;49.156;8.142;2023-03-01T16:02:45;22.00;75.10
18101;DHT22;9177;49.156;8.142;2023-03-01T16:05:19;22.00;74.50
18101;DHT22;9177;49.156;8.142;2023-03-01T16:07:47;21.90;75.20
18101;DHT22;9177;49.156;8.142;2023-03-01T16:10:14;21.80;75.30
18101;DHT22;9177;49.156;8.142;2023-03-01T16:12:40;21.80;75.20
18101;DHT22;9177;49.156;8.142;2023-03-01T16:15:13;21.80;75.40
18101;DHT22;9177;49.156;8.142;2023-03-01T16:17:42;21.70;75.30
18101;DHT22;9177;49.156;8.142;2023-03-01T16:20:11;21.70;75.10